createdAt,value
2022-09-07T00:00:08.011Z,21.67
2022-09-07T00:00:20.000Z,21.68
2022-09-07T00:00:32.128Z,21.68
2022-09-07T00:00:44.423Z,21.66
2022-09-07T00:00:56.527Z,21.64
2022-09-07T00:01:08.896Z,21.59
2022-09-07T00:01:20.999Z,21.59
2022-09-07T00:01:32.975Z,21.57
2022-09-07T00:01:45.465Z,21.58
2022-09-07T00:01:57.428Z,21.56
2022-09-07T00:02:09.437Z,21.56
2022-09-07T00:02:22.425Z,21.52
2022-09-07T00:02:34.462Z,21.50
2022-09-07T00:02:46.536Z,21.51
2022-09-07T00:02:58.674Z,21.48
2022-09-07T00:03:11.070Z,21.47
2022-09-07T00:03:23.471Z,21.44
2022-09-07T00:03:35.674Z,21.35
2022-09-07T00:03:47.752Z,21.27
2022-09-07T00:04:00.662Z,21.24
2022-09-07T00:04:12.795Z,21.14
2022-09-07T00:04:27.789Z,21.17
2022-09-07T00:04:39.969Z,21.18
2022-09-07T00:04:52.001Z,21.20
2022-09-07T00:05:04.248Z,21.23
2022-09-07T00:05:16.269Z,21.24
2022-09-07T00:05:29.088Z,21.25
2022-09-07T00:05:43.140Z,21.26
2022-09-07T00:05:55.636Z,21.26
2022-09-07T00:06:09.897Z,21.29
2022-09-07T00:06:22.057Z,21.30
2022-09-07T00:06:36.940Z,21.30
2022-09-07T00:06:48.921Z,21.32
2022-09-07T00:07:00.892Z,21.31
2022-09-07T00:07:12.958Z,21.32
2022-09-07T00:07:24.939Z,21.31
2022-09-07T00:07:37.043Z,21.30
2022-09-07T00:07:49.061Z,21.27
2022-09-07T00:08:01.205Z,21.27
2022-09-07T00:08:14.517Z,21.25
2022-09-07T00:08:27.383Z,21.28
2022-09-07T00:08:41.073Z,21.26
2022-09-07T00:08:53.107Z,21.28
2022-09-07T00:09:05.138Z,21.26
2022-09-07T00:09:17.132Z,21.14
2022-09-07T00:09:29.116Z,21.13
2022-09-07T00:09:41.283Z,21.14
2022-09-07T00:09:53.280Z,21.13
2022-09-07T00:10:05.737Z,21.11
2022-09-07T00:10:17.833Z,21.07
2022-09-07T00:10:29.839Z,21.10
2022-09-07T00:10:42.032Z,21.09
2022-09-07T00:10:56.988Z,21.08
2022-09-07T00:11:14.608Z,21.04
2022-09-07T00:11:26.685Z,21.05
2022-09-07T00:11:38.779Z,21.04
2022-09-07T00:11:50.819Z,21.01
2022-09-07T00:12:03.003Z,21.00
2022-09-07T00:12:15.127Z,20.99
2022-09-07T00:12:27.159Z,20.97
2022-09-07T00:12:39.387Z,20.97
2022-09-07T00:12:52.324Z,20.95
2022-09-07T00:13:05.585Z,20.93
2022-09-07T00:13:17.588Z,20.87
2022-09-07T00:13:32.761Z,20.84
2022-09-07T00:13:49.560Z,20.85
2022-09-07T00:14:03.836Z,20.85
2022-09-07T00:14:15.803Z,20.82
2022-09-07T00:14:27.852Z,20.82
2022-09-07T00:14:39.843Z,20.79
2022-09-07T00:14:51.865Z,20.78
2022-09-07T00:15:08.199Z,20.78
2022-09-07T00:15:20.260Z,20.71
2022-09-07T00:15:32.656Z,20.71
2022-09-07T00:15:44.910Z,20.70
2022-09-07T00:15:57.066Z,20.65
2022-09-07T00:16:15.606Z,20.57
2022-09-07T00:16:30.462Z,20.60
2022-09-07T00:16:42.552Z,20.63
2022-09-07T00:16:54.562Z,20.65
2022-09-07T00:17:06.550Z,20.66
2022-09-07T00:17:18.598Z,20.70
2022-09-07T00:17:30.569Z,20.70
2022-09-07T00:17:42.557Z,20.73
2022-09-07T00:17:54.569Z,20.74
2022-09-07T00:18:06.711Z,20.77
2022-09-07T00:18:18.820Z,20.75
2022-09-07T00:18:31.570Z,20.71
2022-09-07T00:18:46.308Z,20.70
2022-09-07T00:19:01.374Z,20.71
2022-09-07T00:19:13.423Z,20.71
2022-09-07T00:19:25.429Z,20.72
2022-09-07T00:19:37.489Z,20.71
2022-09-07T00:19:49.724Z,20.71
2022-09-07T00:20:02.376Z,20.73
2022-09-07T00:20:15.040Z,20.75
2022-09-07T00:20:27.018Z,20.78
2022-09-07T00:20:39.028Z,20.79
2022-09-07T00:21:02.143Z,20.82
2022-09-07T00:21:16.440Z,20.85
2022-09-07T00:21:29.194Z,20.86
2022-09-07T00:21:43.891Z,20.88
2022-09-07T00:21:55.885Z,20.88
2022-09-07T00:22:07.922Z,20.89
2022-09-07T00:22:19.894Z,20.91
2022-09-07T00:22:32.183Z,20.90
2022-09-07T00:22:46.077Z,20.91
2022-09-07T00:22:58.070Z,20.92
2022-09-07T00:23:10.373Z,20.94
2022-09-07T00:23:22.379Z,20.92
2022-09-07T00:23:36.192Z,20.92
2022-09-07T00:23:49.991Z,20.92
2022-09-07T00:24:02.262Z,20.92
2022-09-07T00:24:14.499Z,20.91
2022-09-07T00:24:27.592Z,20.92
2022-09-07T00:24:39.594Z,20.91
2022-09-07T00:24:51.585Z,20.89
2022-09-07T00:25:04.266Z,20.89
2022-09-07T00:25:16.487Z,20.88
2022-09-07T00:25:31.822Z,20.89
2022-09-07T00:25:44.138Z,20.91
2022-09-07T00:26:08.140Z,20.91
2022-09-07T00:26:30.941Z,20.91
2022-09-07T00:26:42.918Z,20.93
2022-09-07T00:26:56.152Z,20.94
2022-09-07T00:27:08.152Z,20.92
2022-09-07T00:27:20.151Z,20.93
2022-09-07T00:27:32.363Z,20.95
2022-09-07T00:27:44.344Z,20.95
2022-09-07T00:27:56.397Z,20.96
2022-09-07T00:28:09.257Z,20.98
2022-09-07T00:28:21.231Z,20.99
2022-09-07T00:28:34.681Z,21.01
2022-09-07T00:28:47.241Z,21.02
2022-09-07T00:29:01.154Z,21.03
2022-09-07T00:29:13.183Z,21.04
2022-09-07T00:29:25.202Z,21.04
2022-09-07T00:29:37.193Z,21.05
2022-09-07T00:29:49.481Z,21.06
2022-09-07T00:30:01.511Z,21.06
2022-09-07T00:30:13.622Z,21.07
2022-09-07T00:30:27.152Z,21.08
2022-09-07T00:30:42.888Z,21.09
2022-09-07T00:30:54.924Z,21.11
2022-09-07T00:31:13.180Z,21.11
2022-09-07T00:31:25.368Z,21.10
2022-09-07T00:31:37.740Z,21.11
2022-09-07T00:31:49.913Z,21.12
2022-09-07T00:32:02.166Z,21.13
2022-09-07T00:32:14.146Z,21.13
2022-09-07T00:32:26.151Z,21.13
2022-09-07T00:32:38.143Z,21.13
2022-09-07T00:32:50.117Z,21.15
2022-09-07T00:33:04.727Z,21.14
2022-09-07T00:33:16.705Z,21.14
2022-09-07T00:33:29.107Z,21.13
2022-09-07T00:33:41.452Z,21.13
2022-09-07T00:33:54.417Z,21.11
2022-09-07T00:34:06.560Z,21.12
2022-09-07T00:34:18.576Z,21.11
2022-09-07T00:34:30.552Z,21.10
2022-09-07T00:34:42.572Z,21.10
2022-09-07T00:34:56.313Z,21.10
2022-09-07T00:35:08.761Z,21.09
2022-09-07T00:35:20.771Z,21.10
2022-09-07T00:35:32.741Z,21.08
2022-09-07T00:35:44.812Z,21.08
2022-09-07T00:35:58.197Z,21.10
2022-09-07T00:36:10.623Z,21.09
2022-09-07T00:36:22.935Z,21.09
2022-09-07T00:36:34.952Z,21.11
2022-09-07T00:36:46.952Z,21.10
2022-09-07T00:36:58.961Z,21.11
2022-09-07T00:37:10.965Z,21.12
2022-09-07T00:37:23.003Z,21.12
2022-09-07T00:37:34.969Z,21.12
2022-09-07T00:37:46.954Z,21.13
2022-09-07T00:37:59.158Z,21.13
2022-09-07T00:38:11.180Z,21.13
2022-09-07T00:38:23.280Z,21.13
2022-09-07T00:38:35.564Z,21.15
2022-09-07T00:38:47.809Z,21.17
2022-09-07T00:38:59.833Z,21.17
2022-09-07T00:39:11.878Z,21.17
2022-09-07T00:39:23.901Z,21.18
2022-09-07T00:39:37.356Z,21.17
2022-09-07T00:39:49.799Z,21.19
2022-09-07T00:40:02.300Z,21.17
2022-09-07T00:40:14.381Z,21.18
2022-09-07T00:40:26.409Z,21.19
2022-09-07T00:40:38.597Z,21.19
2022-09-07T00:40:50.780Z,21.16
2022-09-07T00:41:02.813Z,21.12
2022-09-07T00:41:16.793Z,21.15
2022-09-07T00:41:29.103Z,21.15
2022-09-07T00:41:41.059Z,21.12
2022-09-07T00:41:53.039Z,21.10
2022-09-07T00:42:05.202Z,21.08
2022-09-07T00:42:21.242Z,21.07
2022-09-07T00:42:33.226Z,21.03
2022-09-07T00:42:45.194Z,21.02
2022-09-07T00:42:57.164Z,21.03
2022-09-07T00:43:33.551Z,21.03
2022-09-07T00:43:47.749Z,21.01
2022-09-07T00:44:38.209Z,20.94
2022-09-07T00:45:07.035Z,20.81
2022-09-07T00:45:21.346Z,20.71
2022-09-07T00:45:33.448Z,20.74
2022-09-07T00:45:45.414Z,20.73
2022-09-07T00:45:57.521Z,20.75
2022-09-07T00:46:31.893Z,20.74
2022-09-07T00:46:44.104Z,20.77
2022-09-07T00:46:56.454Z,20.76
2022-09-07T00:47:19.775Z,20.78
2022-09-07T00:47:54.946Z,20.82
2022-09-07T00:48:27.796Z,20.79
2022-09-07T00:49:00.940Z,20.79
2022-09-07T00:49:18.777Z,20.79
2022-09-07T00:49:31.198Z,20.79
2022-09-07T00:49:47.876Z,20.80
2022-09-07T00:50:05.600Z,20.82
2022-09-07T00:50:27.007Z,20.83
2022-09-07T00:50:46.436Z,20.87
2022-09-07T00:51:05.566Z,20.89
2022-09-07T00:51:39.385Z,20.90
2022-09-07T00:51:55.948Z,20.92
2022-09-07T00:52:08.986Z,20.95
2022-09-07T00:52:23.396Z,20.95
2022-09-07T00:52:37.847Z,20.94
2022-09-07T00:52:55.761Z,20.94
2022-09-07T00:53:14.433Z,20.96
2022-09-07T00:53:30.016Z,20.98
2022-09-07T00:53:45.256Z,20.99
2022-09-07T00:54:04.976Z,20.99
2022-09-07T00:54:21.815Z,21.00
2022-09-07T00:54:53.087Z,20.96
2022-09-07T00:55:09.899Z,20.95
2022-09-07T00:55:22.508Z,20.96
2022-09-07T00:55:37.737Z,20.98
2022-09-07T00:55:52.348Z,21.00
2022-09-07T00:56:06.371Z,20.98
2022-09-07T00:56:18.394Z,20.99
2022-09-07T00:56:34.564Z,21.01
2022-09-07T00:56:48.696Z,21.00
2022-09-07T00:57:00.776Z,20.99
2022-09-07T00:57:14.220Z,20.99
2022-09-07T00:57:28.137Z,20.98
2022-09-07T00:57:45.011Z,20.99
2022-09-07T00:57:58.454Z,20.99
2022-09-07T00:58:10.993Z,21.01
2022-09-07T00:58:23.885Z,20.99
2022-09-07T00:58:41.773Z,21.01
2022-09-07T00:58:54.137Z,21.01
2022-09-07T00:59:07.396Z,21.02
2022-09-07T00:59:24.685Z,21.03
2022-09-07T00:59:42.527Z,21.03
2022-09-07T00:59:57.544Z,21.03
2022-09-07T01:00:10.275Z,21.04
2022-09-07T01:00:22.678Z,21.04
2022-09-07T01:00:35.667Z,21.02
2022-09-07T01:00:49.564Z,21.03
2022-09-07T01:01:01.684Z,21.03
2022-09-07T01:01:14.546Z,21.04
2022-09-07T01:01:27.381Z,21.03
2022-09-07T01:01:40.373Z,21.03
2022-09-07T01:01:53.272Z,21.04
2022-09-07T01:02:06.178Z,21.04
2022-09-07T01:02:20.021Z,21.03
2022-09-07T01:02:32.408Z,21.04
2022-09-07T01:02:46.994Z,21.04
2022-09-07T01:03:00.480Z,21.05
2022-09-07T01:03:15.017Z,21.04
2022-09-07T01:03:33.708Z,21.01
2022-09-07T01:03:49.908Z,21.00
2022-09-07T01:04:03.005Z,21.00
2022-09-07T01:04:16.160Z,20.99
2022-09-07T01:04:30.215Z,20.94
2022-09-07T01:04:42.301Z,20.85
2022-09-07T01:05:08.811Z,20.83
2022-09-07T01:05:48.572Z,20.81
2022-09-07T01:06:16.706Z,20.79
2022-09-07T01:06:38.035Z,20.74
2022-09-07T01:06:50.188Z,20.72
2022-09-07T01:07:03.549Z,20.69
2022-09-07T01:07:15.601Z,20.71
2022-09-07T01:07:27.589Z,20.70
2022-09-07T01:07:39.612Z,20.72
2022-09-07T01:07:51.945Z,20.73
2022-09-07T01:08:05.424Z,20.71
2022-09-07T01:08:17.643Z,20.65
2022-09-07T01:08:30.556Z,20.67
2022-09-07T01:08:44.102Z,20.68
2022-09-07T01:09:01.181Z,20.70
2022-09-07T01:09:16.952Z,20.54
2022-09-07T01:09:29.293Z,20.56
2022-09-07T01:09:42.165Z,20.54
2022-09-07T01:09:55.461Z,20.58
2022-09-07T01:10:08.952Z,20.60
2022-09-07T01:10:24.761Z,20.62
2022-09-07T01:10:37.581Z,20.65
2022-09-07T01:10:49.766Z,20.66
2022-09-07T01:11:02.009Z,20.68
2022-09-07T01:11:13.994Z,20.69
2022-09-07T01:11:26.269Z,20.70
2022-09-07T01:11:39.232Z,20.71
2022-09-07T01:11:53.511Z,20.73
2022-09-07T01:12:05.956Z,20.75
2022-09-07T01:12:17.952Z,20.75
2022-09-07T01:12:29.919Z,20.75
2022-09-07T01:12:42.069Z,20.77
2022-09-07T01:12:54.084Z,20.75
2022-09-07T01:13:06.540Z,20.74
2022-09-07T01:13:18.578Z,20.75
2022-09-07T01:13:30.988Z,20.78
2022-09-07T01:13:44.745Z,20.79
2022-09-07T01:13:58.257Z,20.78
2022-09-07T01:14:15.075Z,20.74
2022-09-07T01:14:31.647Z,20.75
2022-09-07T01:14:49.224Z,20.78
2022-09-07T01:15:01.878Z,20.74
2022-09-07T01:15:13.890Z,20.70
2022-09-07T01:15:47.628Z,20.61
2022-09-07T01:16:07.343Z,20.60
2022-09-07T01:16:47.115Z,20.64
2022-09-07T01:17:01.905Z,20.66
2022-09-07T01:17:22.951Z,20.57
2022-09-07T01:17:43.669Z,20.51
2022-09-07T01:19:03.817Z,20.56
2022-09-07T01:19:35.986Z,20.60
2022-09-07T01:20:21.545Z,20.61
2022-09-07T01:20:50.691Z,20.67
2022-09-07T01:21:14.707Z,20.66
2022-09-07T01:21:47.737Z,20.66
2022-09-07T01:22:37.832Z,20.55
2022-09-07T01:23:16.377Z,20.71
2022-09-07T01:23:56.202Z,20.75
2022-09-07T01:24:46.640Z,20.80
2022-09-07T01:25:04.473Z,20.82
2022-09-07T01:25:19.012Z,20.83
2022-09-07T01:25:57.103Z,20.83
2022-09-07T01:26:27.439Z,20.81
2022-09-07T01:26:54.458Z,20.80
2022-09-07T01:27:54.316Z,20.79
2022-09-07T01:28:15.747Z,20.77
2022-09-07T01:28:32.047Z,20.77
2022-09-07T01:28:49.441Z,20.78
2022-09-07T01:29:17.727Z,20.75
2022-09-07T01:29:40.687Z,20.74
2022-09-07T01:30:12.501Z,20.66
2022-09-07T01:30:25.450Z,20.68
2022-09-07T01:30:39.946Z,20.68
2022-09-07T01:30:57.349Z,20.70
2022-09-07T01:31:33.884Z,20.73
2022-09-07T01:31:51.565Z,20.73
2022-09-07T01:32:21.288Z,20.72
2022-09-07T01:32:42.637Z,20.71
2022-09-07T01:33:23.154Z,20.70
2022-09-07T01:33:40.874Z,20.68
2022-09-07T01:34:07.095Z,20.69
2022-09-07T01:34:25.364Z,20.71
2022-09-07T01:34:37.650Z,20.73
2022-09-07T01:34:53.576Z,20.71
2022-09-07T01:35:18.181Z,20.70
2022-09-07T01:35:36.371Z,20.72
2022-09-07T01:36:11.407Z,20.72
2022-09-07T01:36:40.600Z,20.77
2022-09-07T01:37:11.530Z,20.80
2022-09-07T01:37:46.853Z,20.85
2022-09-07T01:38:12.685Z,20.87
2022-09-07T01:38:24.783Z,20.88
2022-09-07T01:39:06.655Z,20.89
2022-09-07T01:39:23.370Z,20.89
2022-09-07T01:39:46.152Z,20.89
2022-09-07T01:40:09.056Z,20.89
2022-09-07T01:40:49.568Z,20.88
2022-09-07T01:41:19.647Z,20.87
2022-09-07T01:41:49.204Z,20.85
2022-09-07T01:42:07.451Z,20.82
2022-09-07T01:42:22.695Z,20.80
2022-09-07T01:42:54.767Z,20.78
2022-09-07T01:43:35.653Z,20.80
2022-09-07T01:43:50.873Z,20.81
2022-09-07T01:44:12.557Z,20.82
2022-09-07T01:44:31.597Z,20.82
2022-09-07T01:44:54.799Z,20.80
2022-09-07T01:45:11.396Z,20.80
2022-09-07T01:45:28.906Z,20.80
2022-09-07T01:45:43.376Z,20.82
2022-09-07T01:45:59.741Z,20.82
2022-09-07T01:46:26.673Z,20.85
2022-09-07T01:47:00.242Z,20.87
2022-09-07T01:47:18.152Z,20.88
2022-09-07T01:47:32.802Z,20.87
2022-09-07T01:47:52.533Z,20.88
2022-09-07T01:48:07.660Z,20.86
2022-09-07T01:48:21.021Z,20.85
2022-09-07T01:48:36.043Z,20.84
2022-09-07T01:48:51.693Z,20.81
2022-09-07T01:49:10.594Z,20.82
2022-09-07T01:49:59.804Z,20.81
2022-09-07T01:50:23.617Z,20.81
2022-09-07T01:51:03.607Z,20.78
2022-09-07T01:51:18.837Z,20.79
2022-09-07T01:51:34.463Z,20.78
2022-09-07T01:51:50.024Z,20.74
2022-09-07T01:52:43.271Z,20.80
2022-09-07T01:53:02.211Z,20.86
2022-09-07T01:53:17.387Z,20.88
2022-09-07T01:53:29.325Z,20.90
2022-09-07T01:53:49.666Z,20.90
2022-09-07T01:54:13.701Z,20.86
2022-09-07T01:54:41.899Z,20.84
2022-09-07T01:55:15.060Z,20.84
2022-09-07T01:55:36.605Z,20.89
2022-09-07T01:56:01.264Z,20.90
2022-09-07T01:56:18.625Z,20.90
2022-09-07T01:56:36.360Z,20.90
2022-09-07T01:56:51.334Z,20.88
2022-09-07T01:57:11.687Z,20.88
2022-09-07T01:57:32.866Z,20.87
2022-09-07T01:57:59.537Z,20.84
2022-09-07T01:58:40.064Z,20.82
2022-09-07T01:58:56.700Z,20.80
2022-09-07T01:59:35.024Z,20.81
2022-09-07T02:00:04.605Z,20.82
2022-09-07T02:00:19.689Z,20.79
2022-09-07T02:00:34.342Z,20.79
2022-09-07T02:00:53.397Z,20.79
2022-09-07T02:01:14.052Z,20.77
2022-09-07T02:01:33.585Z,20.77
2022-09-07T02:01:57.619Z,20.75
2022-09-07T02:02:16.705Z,20.73
2022-09-07T02:02:34.480Z,20.78
2022-09-07T02:02:52.643Z,20.80
2022-09-07T02:03:13.348Z,20.79
2022-09-07T02:03:33.475Z,20.83
2022-09-07T02:03:51.401Z,20.87
2022-09-07T02:04:12.619Z,20.90
2022-09-07T02:05:02.040Z,20.93
2022-09-07T02:05:20.672Z,20.95
2022-09-07T02:06:05.397Z,20.97
2022-09-07T02:06:23.659Z,20.99
2022-09-07T02:06:57.235Z,20.92
2022-09-07T02:07:14.706Z,20.88
2022-09-07T02:07:29.383Z,20.83
2022-09-07T02:07:50.993Z,20.75
2022-09-07T02:08:14.945Z,20.72
2022-09-07T02:08:59.089Z,20.51
2022-09-07T02:09:21.028Z,20.52
2022-09-07T02:09:51.293Z,20.26
2022-09-07T02:10:27.502Z,20.27
2022-09-07T02:11:12.405Z,20.24
2022-09-07T02:11:32.848Z,20.09
2022-09-07T02:11:48.054Z,20.12
2022-09-07T02:12:06.875Z,20.07
2022-09-07T02:12:30.605Z,20.02
2022-09-07T02:12:57.866Z,20.05
2022-09-07T02:13:22.117Z,20.16
2022-09-07T02:13:36.137Z,20.22
2022-09-07T02:14:01.226Z,20.23
2022-09-07T02:14:24.848Z,20.14
2022-09-07T02:14:41.528Z,20.14
2022-09-07T02:15:02.520Z,20.13
2022-09-07T02:15:22.339Z,20.14
2022-09-07T02:15:45.812Z,20.22
2022-09-07T02:16:00.316Z,20.23
2022-09-07T02:16:26.732Z,20.23
2022-09-07T02:16:48.541Z,20.28
2022-09-07T02:17:07.260Z,20.31
2022-09-07T02:17:29.076Z,20.32
2022-09-07T02:17:49.720Z,20.35
2022-09-07T02:18:05.698Z,20.38
2022-09-07T02:18:20.934Z,20.42
2022-09-07T02:18:39.839Z,20.42
2022-09-07T02:18:56.765Z,20.28
2022-09-07T02:19:14.048Z,20.33
2022-09-07T02:19:32.790Z,20.40
2022-09-07T02:19:52.787Z,20.44
2022-09-07T02:20:23.434Z,20.46
2022-09-07T02:20:38.291Z,20.49
2022-09-07T02:20:54.516Z,20.48
2022-09-07T02:21:09.099Z,20.53
2022-09-07T02:21:27.551Z,20.56
2022-09-07T02:21:43.922Z,20.59
2022-09-07T02:22:08.033Z,20.63
2022-09-07T02:22:27.144Z,20.67
2022-09-07T02:22:44.653Z,20.69
2022-09-07T02:23:02.357Z,20.70
2022-09-07T02:23:20.120Z,20.73
2022-09-07T02:23:39.617Z,20.75
2022-09-07T02:23:56.928Z,20.77
2022-09-07T02:24:17.223Z,20.83
2022-09-07T02:24:35.830Z,20.80
2022-09-07T02:24:52.678Z,20.79
2022-09-07T02:25:07.125Z,20.79
2022-09-07T02:25:26.052Z,20.84
2022-09-07T02:25:45.335Z,20.87
2022-09-07T02:26:04.542Z,20.87
2022-09-07T02:26:22.327Z,20.90
2022-09-07T02:26:38.857Z,20.92
2022-09-07T02:26:53.556Z,20.97
2022-09-07T02:27:14.956Z,21.00
2022-09-07T02:27:34.470Z,21.03
2022-09-07T02:27:50.967Z,21.04
2022-09-07T02:28:09.930Z,21.08
2022-09-07T02:28:30.576Z,21.11
2022-09-07T02:28:43.050Z,21.14
2022-09-07T02:28:57.956Z,21.14
2022-09-07T02:29:09.954Z,21.15
2022-09-07T02:29:22.344Z,21.18
2022-09-07T02:29:35.428Z,21.19
2022-09-07T02:29:47.597Z,21.18
2022-09-07T02:29:59.701Z,21.19
2022-09-07T02:30:12.344Z,21.21
2022-09-07T02:30:24.629Z,21.22
2022-09-07T02:30:37.200Z,21.24
2022-09-07T02:30:49.282Z,21.27
2022-09-07T02:31:01.973Z,21.29
2022-09-07T02:31:14.389Z,21.30
2022-09-07T02:31:26.510Z,21.32
2022-09-07T02:31:38.559Z,21.34
2022-09-07T02:31:51.552Z,21.35
2022-09-07T02:32:04.251Z,21.37
2022-09-07T02:32:16.284Z,21.38
2022-09-07T02:32:28.532Z,21.40
2022-09-07T02:32:40.918Z,21.39
2022-09-07T02:32:52.995Z,21.40
2022-09-07T02:33:06.015Z,21.39
2022-09-07T02:33:18.176Z,21.39
2022-09-07T02:33:30.920Z,21.39
2022-09-07T02:33:43.010Z,21.40
2022-09-07T02:33:55.384Z,21.39
2022-09-07T02:34:07.772Z,21.42
2022-09-07T02:34:20.069Z,21.42
2022-09-07T02:34:32.713Z,21.44
2022-09-07T02:34:46.091Z,21.46
2022-09-07T02:34:58.142Z,21.48
2022-09-07T02:35:10.399Z,21.49
2022-09-07T02:35:22.845Z,21.50
2022-09-07T02:35:35.369Z,21.50
2022-09-07T02:35:47.517Z,21.51
2022-09-07T02:36:01.536Z,21.52
2022-09-07T02:36:17.497Z,21.53
2022-09-07T02:36:35.187Z,21.56
2022-09-07T02:36:50.972Z,21.57
2022-09-07T02:37:06.129Z,21.58
2022-09-07T02:37:19.704Z,21.60
2022-09-07T02:37:33.628Z,21.61
2022-09-07T02:37:48.790Z,21.63
2022-09-07T02:38:04.384Z,21.67
2022-09-07T02:38:16.492Z,21.67
2022-09-07T02:38:28.731Z,21.68
2022-09-07T02:38:41.142Z,21.69
2022-09-07T02:38:53.367Z,21.71
2022-09-07T02:39:05.501Z,21.72
2022-09-07T02:39:17.988Z,21.72
2022-09-07T02:39:30.433Z,21.73
2022-09-07T02:39:42.509Z,21.74
2022-09-07T02:39:55.095Z,21.74
2022-09-07T02:40:08.474Z,21.74
2022-09-07T02:40:20.525Z,21.74
2022-09-07T02:40:32.722Z,21.75
2022-09-07T02:40:53.821Z,21.76
2022-09-07T02:41:26.414Z,21.75
2022-09-07T02:41:41.559Z,21.74
2022-09-07T02:41:53.521Z,21.72
2022-09-07T02:42:05.833Z,21.74
2022-09-07T02:42:17.845Z,21.76
2022-09-07T02:42:35.056Z,21.76
2022-09-07T02:42:48.448Z,21.78
2022-09-07T02:43:04.025Z,21.79
2022-09-07T02:43:16.048Z,21.78
2022-09-07T02:43:29.810Z,21.79
2022-09-07T02:43:41.812Z,21.78
2022-09-07T02:43:53.825Z,21.79
2022-09-07T02:44:15.941Z,21.78
2022-09-07T02:44:32.482Z,21.78
2022-09-07T02:44:46.481Z,21.78
2022-09-07T02:44:59.181Z,21.78
2022-09-07T02:45:13.494Z,21.76
2022-09-07T02:45:25.911Z,21.78
2022-09-07T02:45:51.994Z,21.82
2022-09-07T02:46:06.919Z,21.81
2022-09-07T02:46:28.001Z,21.81
2022-09-07T02:47:06.919Z,21.81
2022-09-07T02:47:48.481Z,21.85
2022-09-07T02:48:16.016Z,21.88
2022-09-07T02:48:36.274Z,21.89
2022-09-07T02:49:08.061Z,21.91
2022-09-07T02:49:38.396Z,21.93
2022-09-07T02:50:16.485Z,21.89
2022-09-07T02:50:47.188Z,21.89
2022-09-07T02:51:17.749Z,21.88
2022-09-07T02:51:56.796Z,21.89
2022-09-07T02:52:40.197Z,21.92
2022-09-07T02:53:06.424Z,21.94
2022-09-07T02:53:31.062Z,21.97
2022-09-07T02:54:05.801Z,21.99
2022-09-07T02:54:42.777Z,22.00
2022-09-07T02:54:57.399Z,21.97
2022-09-07T02:55:21.973Z,21.95
2022-09-07T02:55:51.918Z,21.93
2022-09-07T02:56:06.179Z,21.91
2022-09-07T02:56:45.184Z,21.90
2022-09-07T02:57:04.307Z,21.86
2022-09-07T02:57:34.693Z,21.81
2022-09-07T02:57:55.327Z,21.81
2022-09-07T02:58:12.922Z,21.83
2022-09-07T02:58:47.523Z,21.83
2022-09-07T02:59:06.214Z,21.80
2022-09-07T02:59:36.660Z,21.83
2022-09-07T02:59:56.360Z,21.82
2022-09-07T03:00:13.123Z,21.81
2022-09-07T03:00:27.680Z,21.80
2022-09-07T03:00:58.352Z,21.78
2022-09-07T03:01:28.771Z,21.80
2022-09-07T03:02:05.438Z,21.84
2022-09-07T03:02:23.124Z,21.86
2022-09-07T03:02:53.637Z,21.86
2022-09-07T03:03:23.554Z,21.87
2022-09-07T03:03:46.434Z,21.87
2022-09-07T03:04:16.538Z,21.87
2022-09-07T03:04:40.404Z,21.82
2022-09-07T03:05:08.752Z,21.80
2022-09-07T03:05:31.199Z,21.81
2022-09-07T03:05:50.806Z,21.82
2022-09-07T03:06:08.586Z,21.81
2022-09-07T03:06:29.375Z,21.80
2022-09-07T03:06:49.971Z,21.82
2022-09-07T03:07:17.294Z,21.82
2022-09-07T03:07:37.544Z,21.83
2022-09-07T03:08:30.525Z,21.83
2022-09-07T03:08:51.013Z,21.86
2022-09-07T03:09:10.242Z,21.89
2022-09-07T03:09:27.980Z,21.88
2022-09-07T03:09:45.509Z,21.87
2022-09-07T03:09:59.673Z,21.88
2022-09-07T03:10:13.880Z,21.86
2022-09-07T03:10:26.645Z,21.87
2022-09-07T03:10:40.563Z,21.86
2022-09-07T03:10:54.096Z,21.86
2022-09-07T03:11:07.688Z,21.86
2022-09-07T03:11:20.042Z,21.86
2022-09-07T03:11:32.138Z,21.86
2022-09-07T03:11:44.620Z,21.85
2022-09-07T03:11:57.116Z,21.86
2022-09-07T03:12:10.169Z,21.87
2022-09-07T03:12:22.560Z,21.88
2022-09-07T03:12:46.836Z,21.89
2022-09-07T03:12:58.904Z,21.88
2022-09-07T03:13:23.235Z,21.88
2022-09-07T03:13:35.253Z,21.87
2022-09-07T03:13:47.223Z,21.87
2022-09-07T03:14:19.610Z,21.88
2022-09-07T03:14:36.175Z,21.87
2022-09-07T03:14:48.450Z,21.83
2022-09-07T03:15:00.428Z,21.83
2022-09-07T03:15:14.578Z,21.82
2022-09-07T03:15:28.140Z,21.83
2022-09-07T03:15:40.257Z,21.82
2022-09-07T03:15:55.986Z,21.82
2022-09-07T03:16:13.313Z,21.83
2022-09-07T03:16:25.406Z,21.85
2022-09-07T03:16:37.378Z,21.83
2022-09-07T03:16:51.418Z,21.83
2022-09-07T03:17:03.522Z,21.82
2022-09-07T03:17:16.025Z,21.83
2022-09-07T03:17:28.051Z,21.82
2022-09-07T03:17:41.124Z,21.83
2022-09-07T03:17:53.615Z,21.83
2022-09-07T03:18:05.752Z,21.83
2022-09-07T03:18:19.312Z,21.83
2022-09-07T03:18:31.435Z,21.83
2022-09-07T03:18:44.253Z,21.82
2022-09-07T03:18:56.204Z,21.81
2022-09-07T03:19:08.174Z,21.80
2022-09-07T03:19:20.178Z,21.78
2022-09-07T03:19:32.157Z,21.78
2022-09-07T03:19:44.195Z,21.76
2022-09-07T03:19:56.166Z,21.75
2022-09-07T03:20:08.915Z,21.73
2022-09-07T03:20:22.858Z,21.73
2022-09-07T03:20:34.825Z,21.72
2022-09-07T03:20:47.055Z,21.73
2022-09-07T03:20:59.038Z,21.69
2022-09-07T03:21:11.556Z,21.71
2022-09-07T03:21:23.883Z,21.72
2022-09-07T03:21:35.899Z,21.72
2022-09-07T03:21:48.535Z,21.70
2022-09-07T03:22:00.528Z,21.72
2022-09-07T03:22:12.509Z,21.72
2022-09-07T03:22:24.516Z,21.73
2022-09-07T03:22:36.520Z,21.75
2022-09-07T03:22:51.273Z,21.76
2022-09-07T03:23:03.298Z,21.76
2022-09-07T03:23:15.291Z,21.77
2022-09-07T03:23:27.463Z,21.78
2022-09-07T03:23:39.494Z,21.78
2022-09-07T03:23:52.020Z,21.78
2022-09-07T03:24:04.509Z,21.78
2022-09-07T03:24:16.573Z,21.79
2022-09-07T03:24:28.657Z,21.80
2022-09-07T03:24:40.938Z,21.81
2022-09-07T03:24:52.899Z,21.83
2022-09-07T03:25:05.953Z,21.84
2022-09-07T03:25:19.108Z,21.83
2022-09-07T03:25:31.087Z,21.81
2022-09-07T03:25:43.372Z,21.81
2022-09-07T03:25:55.365Z,21.78
2022-09-07T03:26:07.348Z,21.78
2022-09-07T03:26:25.083Z,21.77
2022-09-07T03:26:41.846Z,21.78
2022-09-07T03:26:53.941Z,21.78
2022-09-07T03:27:06.111Z,21.78
2022-09-07T03:27:18.098Z,21.78
2022-09-07T03:27:31.605Z,21.79
2022-09-07T03:27:43.990Z,21.81
2022-09-07T03:27:56.201Z,21.81
2022-09-07T03:28:08.684Z,21.80
2022-09-07T03:28:20.664Z,21.79
2022-09-07T03:28:32.673Z,21.80
2022-09-07T03:28:44.720Z,21.79
2022-09-07T03:28:56.754Z,21.80
2022-09-07T03:29:09.203Z,21.81
2022-09-07T03:29:21.271Z,21.82
2022-09-07T03:29:33.255Z,21.81
2022-09-07T03:29:45.249Z,21.79
2022-09-07T03:29:58.076Z,21.78
2022-09-07T03:30:11.835Z,21.76
2022-09-07T03:30:23.823Z,21.78
2022-09-07T03:30:35.933Z,21.79
2022-09-07T03:30:48.390Z,21.79
2022-09-07T03:31:02.155Z,21.79
2022-09-07T03:31:14.280Z,21.80
2022-09-07T03:31:26.494Z,21.81
2022-09-07T03:31:38.617Z,21.81
2022-09-07T03:31:50.604Z,21.83
2022-09-07T03:32:02.862Z,21.81
2022-09-07T03:32:17.725Z,21.80
2022-09-07T03:32:32.490Z,21.80
2022-09-07T03:32:44.483Z,21.80
2022-09-07T03:32:56.511Z,21.80
2022-09-07T03:33:08.501Z,21.80
2022-09-07T03:33:20.463Z,21.82
2022-09-07T03:33:32.474Z,21.82
2022-09-07T03:33:44.480Z,21.83
2022-09-07T03:33:56.458Z,21.83
2022-09-07T03:34:08.460Z,21.85
2022-09-07T03:34:20.429Z,21.84
2022-09-07T03:34:33.284Z,21.84
2022-09-07T03:34:45.323Z,21.84
2022-09-07T03:34:57.309Z,21.85
2022-09-07T03:35:10.119Z,21.85
2022-09-07T03:35:22.323Z,21.85
2022-09-07T03:35:34.288Z,21.85
2022-09-07T03:35:56.526Z,21.87
2022-09-07T03:36:08.588Z,21.89
2022-09-07T03:36:20.582Z,21.89
2022-09-07T03:36:33.676Z,21.89
2022-09-07T03:36:45.690Z,21.90
2022-09-07T03:36:57.673Z,21.90
2022-09-07T03:37:09.790Z,21.91
2022-09-07T03:37:21.778Z,21.91
2022-09-07T03:37:36.449Z,21.91
2022-09-07T03:37:48.571Z,21.91
2022-09-07T03:38:00.581Z,21.91
2022-09-07T03:38:12.966Z,21.92
2022-09-07T03:38:25.198Z,21.89
2022-09-07T03:38:37.217Z,21.89
2022-09-07T03:38:49.258Z,21.90
2022-09-07T03:39:02.318Z,21.91
2022-09-07T03:39:14.359Z,21.91
2022-09-07T03:39:27.862Z,21.92